Time;durP1;ratioP1;P1;durP2;ratioP2;P2;SDS_P1;SDS_P2;PMS_P1;PMS_P2;Temp;Humidity;BMP_temperature;BMP_pressure;BME280_temperature;BME280_humidity;BME280_pressure;Samples;Min_cycle;Max_cycle;Signal;HPM_P1;HPM_P2
2023/12/04 00:02:00;;;;;;;20.27;10.10;;;;;;;-144.05;69.02;57065.47;4989190;28;20499;-82
2023/12/04 00:04:26;;;;;;;18.55;8.52;;;;;;;-144.05;68.50;57097.34;4973643;28;20357;-81
2023/12/04 00:06:53;;;;;;;19.95;10.13;;;;;;;-144.05;68.16;57097.34;4980587;28;20035;-80
2023/12/04 00:09:19;;;;;;;17.95;9.25;;;-1.70;99.90;;;-144.05;68.47;57080.34;4997089;28;20045;-80
2023/12/04 00:11:46;;;;;;;17.40;8.18;;;;;;;-144.05;67.68;57097.34;4981668;28;20086;-82
2023/12/04 00:14:12;;;;;;;15.88;8.73;;;;;;;-144.05;66.92;57065.47;4981272;28;20038;-80
2023/12/04 00:16:38;;;;;;;18.42;8.93;;;;;;;-144.05;66.64;57069.72;4981560;28;20052;-80
2023/12/04 00:19:05;;;;;;;16.83;8.05;;;;;;;-144.05;66.65;57088.84;4981069;28;20057;-82
2023/12/04 00:21:31;;;;;;;18.52;8.70;;;;;;;-144.05;65.95;57095.22;4980591;28;20035;-80
2023/12/04 00:23:57;;;;;;;15.75;8.18;;;;;;;-144.05;65.60;57101.59;4971321;28;20039;-82
2023/12/04 00:26:23;;;;;;;16.38;8.82;;;;;;;-144.05;65.27;57080.34;4979888;28;20499;-83
2023/12/04 00:28:50;;;;;;;16.95;8.48;;;;;;;-144.05;65.03;57073.97;4981280;28;20031;-82
2023/12/04 00:31:16;;;;;;;14.10;8.23;;;;;;;-144.05;64.65;57095.22;4981361;28;20077;-82
2023/12/04 00:33:42;;;;;;;15.27;7.68;;;;;;;-144.05;64.62;57061.22;4985995;28;20030;-81
2023/12/04 00:36:09;;;;;;;17.48;8.10;;;;;;;-144.05;64.10;57088.84;4986756;28;20034;-82
2023/12/04 00:38:36;;;;;;;17.55;9.00;;;;;;;-144.05;64.21;57086.72;4986552;28;20111;-80
2023/12/04 00:41:02;;;;;;;19.13;8.85;;;;;;;-144.05;64.74;57073.97;4988075;28;20035;-81
2023/12/04 00:43:28;;;;;;;15.68;8.02;;;;;;;-144.05;64.24;57099.47;5002301;28;20091;-80
2023/12/04 00:45:54;;;;;;;15.65;7.43;;;;;;;-144.05;63.84;57071.84;5013595;28;20075;-81
2023/12/04 00:48:21;;;;;;;15.85;7.63;;;;;;;-144.05;63.36;57061.22;4990589;28;20148;-82
2023/12/04 00:50:47;;;;;;;16.95;7.78;;;;;;;-144.05;64.14;57095.22;5009218;28;20092;-79
2023/12/04 00:53:13;;;;;;;17.08;7.30;;;;;;;-144.05;63.32;57071.84;5014384;28;20090;-80
2023/12/04 00:55:39;;;;;;;12.65;6.82;;;;;;;-144.05;63.29;57088.84;5028501;23;20046;-81
2023/12/04 00:58:05;;;;;;;13.55;7.35;;;;;;;-144.05;63.11;57054.88;5033186;28;20022;-80
2023/12/04 01:00:32;;;;;;;14.38;7.10;;;;;;;-144.05;62.87;57078.22;5018339;28;20038;-82
2023/12/04 01:02:58;;;;;;;14.68;7.25;;;;;;;-144.05;62.82;57069.72;5035217;28;20034;-82
2023/12/04 01:05:24;;;;;;;12.30;6.88;;;;;;;-144.05;62.42;57082.47;5034057;28;20032;-81
2023/12/04 01:07:51;;;;;;;15.20;8.23;;;;;;;-144.05;62.61;57086.72;5017473;28;20376;-80
2023/12/04 01:10:17;;;;;;;14.45;7.63;;;;;;;-144.05;62.18;57086.72;5018681;28;20022;-82
2023/12/04 01:12:43;;;;;;;14.98;7.78;;;;;;;-144.05;62.36;57048.50;5021539;28;20049;-80
2023/12/04 01:15:10;;;;;;;13.48;6.75;;;;;;;-144.05;61.61;57088.84;5017579;28;20037;-80
2023/12/04 01:17:36;;;;;;;14.75;7.45;;;;;;;-144.05;61.42;57080.34;5016258;28;20049;-80
2023/12/04 01:20:03;;;;;;;16.10;6.80;;;;;;;-144.05;61.02;57101.59;5015378;28;20113;-80
2023/12/04 01:22:29;;;;;;;13.32;6.85;;;;;;;-144.05;60.72;57048.50;5013067;28;20062;-82
2023/12/04 01:24:55;;;;;;;14.90;7.10;;;;;;;-144.05;60.48;57093.09;5018460;28;20030;-83
2023/12/04 01:27:21;;;;;;;13.45;7.05;;;;;;;-144.05;60.98;57073.97;5016392;28;20026;-81
2023/12/04 01:29:47;;;;;;;13.05;6.85;;;;;;;-144.05;61.21;57093.09;5016795;28;20030;-83
2023/12/04 01:32:14;;;;;;;14.95;8.18;;;;;;;-144.05;61.14;57056.97;5014893;28;20029;-83
2023/12/04 01:34:40;;;;;;;12.10;6.68;;;;;;;-144.05;60.24;57078.22;5016398;28;20088;-80
2023/12/04 01:37:06;;;;;;;14.48;7.70;;;;;;;-144.05;60.25;57090.97;5018932;28;20427;-81
2023/12/04 01:39:32;;;;;;;13.73;6.05;;;;;;;-144.05;60.88;57056.97;5018262;28;20053;-84
2023/12/04 01:41:59;;;;;;;11.63;6.15;;;;;;;-144.05;61.01;57084.59;5014138;28;20049;-82
2023/12/04 01:44:25;;;;;;;15.27;7.93;;;;;;;-144.05;60.35;57086.72;5042518;28;20084;-80
2023/12/04 01:46:52;;;;;;;14.63;6.63;;;;;;;-144.05;60.10;57082.47;5019950;28;20041;-82
2023/12/04 01:49:18;;;;;;;12.45;7.20;;;;;;;-144.05;59.60;57044.25;5017565;28;20029;-83
2023/12/04 01:51:45;;;;;;;13.35;6.72;;;;;;;-144.05;59.99;57090.97;5015777;28;20057;-82
2023/12/04 01:54:12;;;;;;;13.80;6.30;;;;;;;-144.05;59.52;57103.72;5015295;28;20033;-83
2023/12/04 01:56:38;;;;;;;12.05;6.88;;;;;;;-144.05;59.40;57061.22;5018492;28;20097;-84
2023/12/04 01:59:05;;;;;;;15.00;7.75;;;;;;;-144.05;59.41;57095.22;5016759;28;20037;-81
2023/12/04 02:01:32;;;;;;;10.45;6.72;;;;;;;-144.05;59.34;57099.47;5019254;28;20098;-82
2023/12/04 02:04:00;;;;;;;14.35;7.57;;;;;;;-144.05;59.14;57080.34;5018922;28;20407;-82
2023/12/04 02:06:26;;;;;;;12.80;6.45;;;;;;;-144.05;59.26;57059.09;5014138;28;20068;-82
2023/12/04 02:08:53;;;;;;;13.77;6.75;;;;;;;-144.05;59.34;57073.97;5016678;28;20119;-81
2023/12/04 02:11:19;;;;;;;12.60;6.60;;;;;;;-144.05;59.29;57078.22;5018878;28;20101;-82
2023/12/04 02:13:45;;;;;;;11.18;6.43;;;;;;;-144.05;59.53;57088.84;5018502;28;20026;-84
2023/12/04 02:16:16;;;;;;;13.93;6.90;;;;;;;-144.05;59.40;57078.22;5020966;28;20217;-83
2023/12/04 02:18:43;;;;;;;12.27;6.32;;;;;;;-144.05;58.80;57052.75;5019478;28;20030;-86
2023/12/04 02:21:09;;;;;;;12.52;6.13;;;;;;;-144.05;58.80;57103.72;5022092;28;20455;-83
2023/12/04 02:23:36;;;;;;;15.20;6.70;;;;;;;-144.05;58.98;57061.22;5021766;28;20030;-85
2023/12/04 02:26:16;;;;;;;11.30;6.15;;;-0.90;99.90;;;-144.05;59.09;57063.34;5018822;28;20446;-82
2023/12/04 02:28:55;;;;;;;10.77;6.40;;;2.50;99.90;;;-144.05;58.36;57063.34;5020297;28;20093;-86
2023/12/04 02:31:24;;;;;;;14.38;6.65;;;;;;;-144.05;57.65;57056.97;5018241;28;20550;-84
2023/12/04 02:33:56;;;;;;;11.75;6.40;;;;;;;-144.05;57.01;57056.97;5021419;28;20037;-84
2023/12/04 02:36:26;;;;;;;12.85;6.43;;;-0.90;99.90;;;-144.05;57.06;57071.84;5022495;28;20030;-84
2023/12/04 02:38:54;;;;;;;12.43;5.97;;;;;;;-144.05;57.05;57084.59;5023041;28;20044;-85
2023/12/04 02:41:20;;;;;;;13.60;6.93;;;;;;;-144.05;57.29;57076.09;5022449;28;20026;-85
2023/12/04 02:43:46;;;;;;;11.13;6.43;;;;;;;-144.05;56.55;57061.22;5024062;28;20021;-86
2023/12/04 02:46:13;;;;;;;11.38;5.68;;;;;;;-144.05;56.66;57084.59;5024258;28;20101;-83
2023/12/04 02:48:39;;;;;;;10.85;5.68;;;;;;;-144.05;56.72;57090.97;5025224;28;20030;-83
2023/12/04 02:51:07;;;;;;;11.88;5.85;;;;;;;-144.05;56.37;57082.47;5025012;28;20201;-82
2023/12/04 02:53:33;;;;;;;13.05;6.15;;;;;;;-144.05;56.04;57084.59;5032752;28;20034;-81
2023/12/04 02:55:59;;;;;;;12.75;7.15;;;;;;;-144.05;55.35;57071.84;5030751;28;20033;-81
2023/12/04 02:58:25;;;;;;;11.77;6.05;;;;;;;-144.05;55.40;57103.72;5020569;28;20037;-81
2023/12/04 03:00:52;;;;;;;10.43;6.30;;;;;;;-144.05;55.23;57095.22;5015800;28;20038;-85
2023/12/04 03:03:18;;;;;;;9.55;5.35;;;;;;;-144.05;55.02;57084.59;5024879;28;20029;-82
2023/12/04 03:05:44;;;;;;;11.43;6.38;;;;;;;-144.05;54.82;57078.22;5022571;28;20049;-83
2023/12/04 03:08:10;;;;;;;13.15;6.00;;;;;;;-144.05;54.62;57086.72;5020108;28;20430;-80
2023/12/04 03:10:37;;;;;;;10.95;5.97;;;;;;;-144.05;54.38;57122.84;5021752;28;20037;-84
2023/12/04 03:13:03;;;;;;;11.18;5.65;;;;;;;-144.05;54.12;57093.09;5021702;28;20101;-84
2023/12/04 03:15:30;;;;;;;12.10;5.95;;;;;;;-144.05;53.04;57080.34;5021813;28;20163;-81
2023/12/04 03:17:58;;;;;;;11.18;6.10;;;;;;;-144.05;53.38;57069.72;5028242;28;20037;-82
2023/12/04 03:20:24;;;;;;;13.80;6.22;;;;;;;-144.05;52.38;57065.47;5012712;28;20504;-81
2023/12/04 03:22:50;;;;;;;11.20;5.97;;;;;;;-144.05;53.23;57114.34;5008585;28;20038;-82
2023/12/04 03:25:16;;;;;;;12.15;6.47;;;;;;;-144.05;53.01;57097.34;5008837;28;20026;-81
2023/12/04 03:27:43;;;;;;;12.43;6.15;;;;;;;-144.05;52.26;57082.47;5011424;28;20038;-80
2023/12/04 03:30:10;;;;;;;9.35;5.47;;;;;;;-144.05;52.14;57078.22;5012676;28;20025;-81
2023/12/04 03:32:36;;;;;;;10.35;5.97;;;;;;;-144.05;52.20;57093.09;5011275;28;20029;-82
2023/12/04 03:35:03;;;;;;;10.75;5.28;;;;;;;-144.05;52.05;57073.97;5012841;28;20109;-81
2023/12/04 03:37:29;;;;;;;9.18;5.13;;;;;;;-144.05;51.90;57082.47;5012479;28;20047;-81
2023/12/04 03:39:55;;;;;;;12.45;4.70;;;;;;;-144.05;51.55;57069.72;5011249;28;20038;-80
2023/12/04 03:42:21;;;;;;;8.93;4.72;;;;;;;-144.05;50.60;57088.84;5018388;28;20383;-81
2023/12/04 03:44:47;;;;;;;8.77;4.75;;;;;;;-144.05;50.89;57061.22;5010486;28;20057;-81
2023/12/04 03:47:13;;;;;;;8.77;4.88;;;;;;;-144.05;51.49;57082.47;5010824;28;20108;-82
2023/12/04 03:49:40;;;;;;;9.52;4.60;;;;;;;-144.05;50.67;57097.34;5012018;28;20041;-83
2023/12/04 03:52:06;;;;;;;7.50;4.65;;;;;;;-144.05;51.16;57069.72;5010878;28;20029;-81
2023/12/04 03:54:32;;;;;;;9.70;4.55;;;;;;;-144.05;50.31;57086.72;5016476;28;20045;-84
2023/12/04 03:56:58;;;;;;;8.95;4.40;;;;;;;-144.05;51.16;57059.09;5013419;28;20030;-84
2023/12/04 03:59:24;;;;;;;11.52;5.22;;;;;;;-144.05;51.04;57086.72;5010032;28;20554;-83
2023/12/04 04:01:51;;;;;;;7.85;4.90;;;;;;;-144.05;51.42;57076.09;5010955;28;20037;-81
2023/12/04 04:04:17;;;;;;;9.32;5.25;;;;;;;-144.05;51.24;57114.34;5027744;28;20483;-82
2023/12/04 04:06:43;;;;;;;9.13;4.40;;;;;;;-144.05;50.30;57071.84;5012339;28;20448;-82
2023/12/04 04:09:09;;;;;;;8.57;5.00;;;;;;;-144.05;50.72;57054.88;5011940;28;20030;-82
2023/12/04 04:11:36;;;;;;;10.48;4.78;;;;;;;-144.05;50.66;57061.22;5012135;28;20442;-83
2023/12/04 04:14:02;;;;;;;9.15;4.63;;;;;;;-144.05;50.32;57071.84;5011155;28;20092;-82
2023/12/04 04:16:28;;;;;;;8.10;4.28;;;;;;;-144.05;50.51;57114.34;5011311;28;20035;-84
2023/12/04 04:18:54;;;;;;;8.40;4.90;;;;;;;-144.05;50.41;57078.22;5019747;28;20040;-83
2023/12/04 04:21:20;;;;;;;6.43;4.00;;;;;;;-144.05;49.66;57056.97;5011343;28;20041;-83
2023/12/04 04:23:47;;;;;;;9.07;4.78;;;;;;;-144.05;50.55;57076.09;5011506;28;20428;-83
2023/12/04 04:26:13;;;;;;;8.60;4.70;;;;;;;-144.05;49.43;57073.97;5011456;28;20061;-82
2023/12/04 04:28:39;;;;;;;7.13;4.22;;;;;;;-144.05;49.64;57105.84;5011325;28;20045;-81
2023/12/04 04:31:05;;;;;;;8.65;4.68;;;;;;;-144.05;49.48;57116.47;5010583;28;20224;-84
2023/12/04 04:33:32;;;;;;;10.27;5.10;;;;;;;-144.05;49.67;57078.22;5012661;28;20030;-82
2023/12/04 04:35:58;;;;;;;8.63;4.28;;;;;;;-144.05;49.59;57065.47;5013967;28;20033;-82
2023/12/04 04:38:24;;;;;;;8.25;4.40;;;;;;;-144.05;48.58;57088.84;5011406;28;20026;-82
2023/12/04 04:40:52;;;;;;;7.75;4.45;;;;;;;-144.05;48.90;57082.47;5013245;28;20075;-81
2023/12/04 04:43:19;;;;;;;7.68;4.28;;;;;;;-144.05;48.89;57093.09;5014336;28;20157;-83
2023/12/04 04:45:46;;;;;;;8.48;4.40;;;;;;;-144.05;48.92;57076.09;5028623;28;20045;-84
2023/12/04 04:48:12;;;;;;;8.23;4.53;;;;;;;-144.05;48.57;57048.50;5028317;28;20048;-82
2023/12/04 04:50:38;;;;;;;7.68;4.32;;;;;;;-144.05;49.04;57110.09;5015365;28;20057;-82
2023/12/04 04:53:04;;;;;;;8.05;4.50;;;;;;;-144.05;49.06;57093.09;5015251;28;20406;-82
2023/12/04 04:55:31;;;;;;;7.55;4.35;;;;;;;-144.05;48.49;57054.88;5016363;28;20040;-82
2023/12/04 04:57:58;;;;;;;7.95;4.55;;;;;;;-144.05;48.04;57069.72;5017270;28;20026;-86
2023/12/04 05:00:25;;;;;;;7.63;4.15;;;;;;;-144.05;48.68;57059.09;5025904;28;20040;-84
2023/12/04 05:02:51;;;;;;;7.88;4.25;;;;;;;-144.05;48.09;57056.97;5018545;28;20022;-83
2023/12/04 05:05:17;;;;;;;6.97;3.88;;;;;;;-144.05;48.73;57078.22;5017437;28;20030;-83
2023/12/04 05:07:43;;;;;;;7.80;3.97;;;;;;;-144.05;48.69;57046.38;5017890;28;20033;-84
2023/12/04 05:10:10;;;;;;;9.60;4.55;;;;;;;-144.05;48.51;57090.97;5017355;28;20029;-83
2023/12/04 05:12:36;;;;;;;7.50;4.13;;;;;;;-144.05;48.45;57016.63;5016798;28;20054;-86
2023/12/04 05:15:03;;;;;;;6.05;3.63;;;;;;;-144.05;48.22;57044.25;5016746;28;20096;-84
2023/12/04 05:17:29;;;;;;;7.07;3.72;;;;;;;-144.05;47.94;57061.22;5015024;28;20034;-83
2023/12/04 05:19:55;;;;;;;6.15;3.67;;;;;;;-144.05;48.20;57095.22;5017458;28;20502;-85
2023/12/04 05:22:21;;;;;;;6.72;3.60;;;;;;;-144.05;47.79;57065.47;5019978;28;20076;-85
2023/12/04 05:24:48;;;;;;;6.78;3.78;;;;;;;-144.05;48.08;57084.59;5019228;28;20030;-82
2023/12/04 05:27:14;;;;;;;7.85;3.90;;;;;;;-144.05;47.44;57082.47;5019291;28;20049;-84
2023/12/04 05:29:40;;;;;;;7.38;3.65;;;;;;;-144.05;48.12;57084.59;5018299;28;20168;-84
2023/12/04 05:32:06;;;;;;;6.00;3.47;;;;;;;-144.05;47.29;57048.50;5017024;28;20065;-85
2023/12/04 05:34:33;;;;;;;7.93;4.28;;;;;;;-144.05;47.22;57078.22;5016125;28;20037;-85
2023/12/04 05:36:59;;;;;;;6.00;3.97;;;;;;;-144.05;47.51;57080.34;5016319;28;20022;-82
2023/12/04 05:39:25;;;;;;;6.15;3.58;;;;;;;-144.05;48.41;57071.84;5017201;28;20356;-84
2023/12/04 05:41:51;;;;;;;7.85;3.65;;;;;;;-144.05;48.25;57059.09;5025867;28;20029;-81
2023/12/04 05:44:18;;;;;;;6.10;4.05;;;;;;;-144.05;47.84;57056.97;5039285;28;20042;-81
2023/12/04 05:46:44;;;;;;;7.53;3.58;;;;;;;-144.05;47.77;57088.84;5023149;28;20514;-81
2023/12/04 05:49:10;;;;;;;9.02;3.85;;;;;;;-144.05;48.19;57046.38;5015779;28;20056;-81
2023/12/04 05:51:36;;;;;;;7.68;3.78;;;;;;;-144.05;48.01;57054.88;5017584;28;20029;-83
2023/12/04 05:54:02;;;;;;;7.82;3.60;;;;;;;-144.05;47.71;57084.59;5032247;28;20088;-80
2023/12/04 05:56:29;;;;;;;7.97;4.35;;;;;;;-144.05;48.41;57065.47;5023775;28;20133;-81
2023/12/04 05:58:56;;;;;;;6.88;3.88;;;;;;;-144.05;48.58;57071.84;5012934;28;20548;-85
2023/12/04 06:01:22;;;;;;;6.63;3.50;;;;;;;-144.05;48.46;57035.75;5009348;28;20034;-81
2023/12/04 06:03:48;;;;;;;9.57;4.28;;;;;;;-144.05;48.50;57052.75;5016068;28;20066;-82
2023/12/04 06:06:17;;;;;;;8.32;4.32;;;;;;;-144.05;48.17;57069.72;5014599;28;20037;-84
2023/12/04 06:08:44;;;;;;;6.43;3.95;;;;;;;-144.05;47.87;57056.97;5007671;28;20507;-82
2023/12/04 06:11:10;;;;;;;8.80;4.88;;;;;;;-144.05;48.21;57069.72;5014543;28;20113;-83
2023/12/04 06:13:36;;;;;;;6.40;3.63;;;;;;;-144.05;48.32;57082.47;5014352;28;20064;-82
2023/12/04 06:16:04;;;;;;;6.43;3.78;;;;;;;-144.05;47.88;57050.63;5015970;28;20072;-82
2023/12/04 06:18:30;;;;;;;6.35;4.15;;;;;;;-144.05;47.35;57107.97;5014191;28;20570;-81
2023/12/04 06:20:57;;;;;;;6.45;3.83;;;;;;;-144.05;47.05;57103.72;5014036;28;20125;-83
2023/12/04 06:23:23;;;;;;;6.85;4.00;;;;;;;-144.05;47.54;57052.75;5015292;28;20037;-80
2023/12/04 06:25:50;;;;;;;8.32;3.83;;;;;;;-144.05;46.95;57076.09;5014337;28;20030;-83
2023/12/04 06:28:16;;;;;;;7.68;4.18;;;;;;;-144.05;47.49;57050.63;5014120;28;20488;-82
2023/12/04 06:30:43;;;;;;;6.47;4.13;;;;;;;-144.05;47.54;57025.13;5010847;28;20462;-80
2023/12/04 06:33:10;;;;;;;7.10;3.72;;;;;;;-144.05;47.89;57059.09;5010325;28;20083;-82
2023/12/04 06:35:36;;;;;;;7.15;3.97;;;;;;;-144.05;47.19;57033.63;5013775;28;20054;-83
2023/12/04 06:38:07;;;;;;;6.18;3.70;;;;;;;-144.05;47.78;57050.63;5014673;28;20044;-82
2023/12/04 06:40:35;;;;;;;7.68;4.07;;;;;;;-144.05;47.21;57046.38;5013618;28;20041;-80
2023/12/04 06:43:01;;;;;;;7.53;4.03;;;;;;;-144.05;47.70;57052.75;5014609;28;20045;-77
2023/12/04 06:45:28;;;;;;;9.68;4.20;;;;;;;-144.05;47.33;57071.84;5015722;28;20038;-81
2023/12/04 06:47:56;;;;;;;6.60;3.95;;;;;;;-144.05;47.91;57069.72;5016170;28;20045;-78
2023/12/04 06:50:22;;;;;;;7.68;4.03;;;;;;;-144.05;47.59;57054.88;5017797;28;20456;-79
2023/12/04 06:52:48;;;;;;;7.20;4.38;;;;;;;-144.05;47.42;57069.72;5026654;28;20036;-79
2023/12/04 06:55:15;;;;;;;8.43;4.60;;;;;;;-144.05;46.74;57054.88;5045122;23;20053;-78
2023/12/04 06:57:41;;;;;;;8.60;4.13;;;;;;;-144.05;47.11;57086.72;5041340;28;20067;-80
2023/12/04 07:00:12;;;;;;;6.80;3.55;;;;;;;-144.05;46.97;57059.09;5042289;28;20351;-83
2023/12/04 07:02:38;;;;;;;5.00;3.35;;;;;;;-144.05;46.19;57067.59;5039051;28;20964;-81
2023/12/04 07:05:05;;;;;;;7.47;3.55;;;;;;;-144.05;46.37;57069.72;5039976;28;20025;-81
2023/12/04 07:07:32;;;;;;;9.02;4.03;;;;;;;-144.05;46.99;57120.72;5042097;28;20099;-85
2023/12/04 07:09:58;;;;;;;7.50;3.78;;;;;;;-144.05;46.76;57050.63;5040595;28;20029;-80
2023/12/04 07:12:24;;;;;;;8.98;4.72;;;;;;;-144.05;46.98;57065.47;5041034;28;20421;-82
2023/12/04 07:14:50;;;;;;;8.43;4.43;;;;;;;-144.05;46.77;57084.59;5039853;28;20041;-85
2023/12/04 07:17:17;;;;;;;6.88;4.00;;;;;;;-144.05;47.33;57099.47;5041830;28;20025;-84
2023/12/04 07:19:43;;;;;;;7.50;3.75;;;;;;;-144.05;46.28;57063.34;5038744;28;20025;-82
2023/12/04 07:22:09;;;;;;;6.78;3.88;;;;;;;-144.05;46.17;57067.59;5039328;28;20049;-84
2023/12/04 07:24:35;;;;;;;9.73;4.32;;;;;;;-144.05;45.97;57093.09;5039195;28;20478;-81
2023/12/04 07:27:02;;;;;;;6.60;3.75;;;;;;;-144.05;45.84;57095.22;5036559;28;20033;-80
2023/12/04 07:29:28;;;;;;;8.23;4.28;;;;;;;-144.05;46.67;57090.97;5038844;28;20099;-83
2023/12/04 07:31:55;;;;;;;8.40;4.57;;;;;;;-144.05;45.85;57093.09;5036771;28;20052;-81
2023/12/04 07:34:21;;;;;;;9.43;3.92;;;;;;;-144.05;45.99;57103.72;5038865;28;20123;-84
2023/12/04 07:36:48;;;;;;;7.85;4.57;;;;;;;-144.05;46.28;57093.09;5037848;28;20478;-80
2023/12/04 07:39:15;;;;;;;7.78;3.95;;;;;;;-144.05;45.50;57050.63;5048452;28;20051;-83
2023/12/04 07:41:41;;;;;;;8.20;4.20;;;;;;;-144.05;45.78;57061.22;5042732;28;20039;-82
2023/12/04 07:44:08;;;;;;;8.30;4.45;;;;;;;-144.05;46.32;57078.22;5044607;28;20029;-83
2023/12/04 07:46:34;;;;;;;10.00;4.45;;;;;;;-144.05;46.10;57048.50;5053227;28;20076;-82
2023/12/04 07:49:00;;;;;;;6.88;3.80;;;;;;;-144.05;45.40;57056.97;5036444;28;20029;-84
2023/12/04 07:51:27;;;;;;;7.60;3.85;;;;;;;-144.05;45.27;57082.47;5037715;28;20036;-84
2023/12/04 07:53:53;;;;;;;5.35;3.33;;;;;;;-144.05;45.56;57031.50;5037982;28;20402;-84
2023/12/04 07:56:20;;;;;;;6.53;3.92;;;;;;;-144.05;44.92;57067.59;5038480;28;20029;-85
2023/12/04 07:58:46;;;;;;;6.28;3.38;;;;;;;-144.05;44.42;57076.09;5040882;28;20036;-83
2023/12/04 08:01:12;;;;;;;6.43;3.17;;;;;;;-144.05;43.32;57090.97;5037754;28;20037;-84
2023/12/04 08:03:38;;;;;;;5.60;3.20;;;;;;;-144.05;43.80;57071.84;5036818;28;20064;-81
2023/12/04 08:06:05;;;;;;;6.35;3.28;;;3.30;99.90;;;-144.05;43.57;57101.59;5038602;28;20029;-82
2023/12/04 08:08:32;;;;;;;7.75;3.53;;;;;;;-144.05;44.27;57076.09;5037291;28;20060;-82
2023/12/04 08:10:58;;;;;;;5.88;3.33;;;3.20;99.90;;;-144.05;43.53;57040.00;5033399;28;20136;-82
2023/12/04 08:13:25;;;;;;;6.75;3.28;;;;;;;-144.05;42.93;57073.97;5053646;28;20041;-84
2023/12/04 08:15:51;;;;;;;7.10;3.90;;;;;;;-144.05;42.89;57048.50;5034642;28;20026;-81
2023/12/04 08:18:17;;;;;;;6.25;3.50;;;;;;;-144.05;42.70;57054.88;5033942;28;20029;-83
2023/12/04 08:20:44;;;;;;;6.43;3.92;;;;;;;-144.05;41.67;57063.34;5035090;28;20072;-82
2023/12/04 08:23:10;;;;;;;5.10;3.10;;;;;;;-144.05;42.38;57080.34;5035787;28;20030;-85
2023/12/04 08:25:38;;;;;;;6.57;3.17;;;;;;;-144.05;41.93;57056.97;5040762;28;20029;-82
2023/12/04 08:28:05;;;;;;;6.07;3.03;;;;;;;-144.05;41.93;57042.13;5057080;28;20053;-82
2023/12/04 08:30:31;;;;;;;6.85;3.28;;;;;;;-144.05;41.86;57056.97;5043462;28;20093;-82
2023/12/04 08:32:57;;;;;;;4.88;3.00;;;;;;;-144.05;41.08;57101.59;5042153;28;20025;-83
2023/12/04 08:35:23;;;;;;;5.68;2.92;;;;;;;-144.05;41.66;57069.72;5040559;28;20045;-84
2023/12/04 08:37:50;;;;;;;6.32;3.10;;;;;;;-144.05;41.12;57054.88;5040723;28;20037;-82
2023/12/04 08:40:16;;;;;;;6.32;3.38;;;;;;;-144.05;41.47;57088.84;5038828;28;20029;-84
2023/12/04 08:42:44;;;;;;;5.18;2.97;;;0.00;99.90;;;-144.05;41.58;57086.72;5047714;28;20041;-83
2023/12/04 08:45:11;;;;;;;6.38;3.67;;;;;;;-144.05;41.19;57052.75;5040908;28;20041;-82
2023/12/04 08:47:37;;;;;;;7.40;3.33;;;;;;;-144.05;42.12;57027.25;5041025;28;20346;-82
2023/12/04 08:50:04;;;;;;;5.72;3.33;;;;;;;-144.05;42.50;57071.84;5038857;28;20065;-83
2023/12/04 08:52:31;;;;;;;6.20;3.25;;;;;;;-144.05;41.86;57046.38;5040621;28;20021;-84
2023/12/04 08:54:57;;;;;;;5.10;3.08;;;;;;;-144.05;40.65;57059.09;5041225;28;20025;-79
2023/12/04 08:57:23;;;;;;;5.38;3.05;;;;;;;-144.05;41.43;57078.22;5040777;28;20048;-83
2023/12/04 08:59:49;;;;;;;4.50;2.92;;;;;;;-144.05;41.49;57048.50;5059318;28;20033;-84
2023/12/04 09:02:15;;;;;;;7.78;3.47;;;;;;;-144.05;40.59;57040.00;5041938;28;20081;-80
2023/12/04 09:04:42;;;;;;;6.22;3.47;;;;;;;-144.05;40.08;57046.38;5041034;28;20034;-85
2023/12/04 09:07:08;;;;;;;6.65;4.05;;;;;;;-144.05;40.39;57050.63;5041914;28;20029;-81
2023/12/04 09:09:34;;;;;;;7.70;4.35;;;;;;;-144.05;40.72;57040.00;5042811;28;20032;-82
2023/12/04 09:12:01;;;;;;;6.85;3.35;;;;;;;-144.05;40.54;57054.88;5035378;28;20026;-83
2023/12/04 09:14:27;;;;;;;6.45;3.00;;;;;;;-144.05;40.70;57040.00;5038620;28;20049;-82
2023/12/04 09:16:54;;;;;;;5.95;3.10;;;;;;;-144.05;39.85;57061.22;5039630;28;20037;-82
2023/12/04 09:19:20;;;;;;;8.13;3.22;;;;;;;-144.05;40.17;57065.47;5040344;28;20478;-83
2023/12/04 09:21:47;;;;;;;5.43;3.22;;;;;;;-144.05;40.64;57029.38;5047995;28;20025;-83
2023/12/04 09:24:13;;;;;;;6.68;3.28;;;;;;;-144.05;40.50;57040.00;5041116;28;20029;-84
2023/12/04 09:26:40;;;;;;;6.60;3.13;;;;;;;-144.05;39.88;57082.47;5038699;28;20106;-82
2023/12/04 09:29:06;;;;;;;5.53;3.25;;;;;;;-144.05;39.77;57080.34;5048015;28;20025;-84
2023/12/04 09:31:35;;;;;;;5.93;3.63;;;;;;;-144.05;40.00;57052.75;5036934;28;20509;-83
2023/12/04 09:34:01;;;;;;;5.30;2.90;;;;;;;-144.05;39.64;57031.50;5040889;28;20482;-81
2023/12/04 09:36:27;;;;;;;5.32;2.90;;;;;;;-144.05;39.72;57056.97;5038283;28;20041;-82
2023/12/04 09:38:53;;;;;;;5.45;3.03;;;;;;;-144.05;39.79;57067.59;5040027;28;20513;-82
2023/12/04 09:41:21;;;;;;;6.38;3.15;;;;;;;-144.05;40.44;57065.47;5039940;28;20038;-84
2023/12/04 09:43:48;;;;;;;5.88;3.50;;;;;;;-144.05;39.88;57073.97;5056145;28;20025;-83
2023/12/04 09:46:17;;;;;;;6.10;3.78;;;;;;;-144.05;40.48;57065.47;5040193;28;20092;-80
2023/12/04 09:48:44;;;;;;;6.43;3.70;;;4.20;99.90;;;-144.05;40.45;57069.72;5040343;28;20025;-81
2023/12/04 09:51:11;;;;;;;4.78;2.85;;;;;;;-144.05;40.41;57061.22;5039351;28;20064;-85
2023/12/04 09:53:39;;;;;;;6.03;3.50;;;;;;;-144.05;40.36;57023.00;5039843;28;20121;-82
2023/12/04 09:56:09;;;;;;;8.35;3.25;;;;;;;-144.05;41.15;57052.75;5035215;28;20041;-84
2023/12/04 09:58:41;;;;;;;6.65;3.40;;;4.20;99.90;;;-144.05;41.01;57031.50;5040708;28;20025;-83
2023/12/04 10:01:08;;;;;;;7.28;3.33;;;;;;;-144.05;40.74;57073.97;5035627;28;20029;-83
2023/12/04 10:03:36;;;;;;;6.70;3.63;;;4.50;99.90;;;-144.05;41.54;57061.22;5038924;28;20427;-83
2023/12/04 10:06:05;;;;;;;8.85;3.65;;;;;;;-144.05;42.04;57023.00;5039583;28;20097;-83
2023/12/04 10:08:31;;;;;;;7.53;3.70;;;;;;;-144.05;41.46;57050.63;5041618;28;20064;-83
2023/12/04 10:10:58;;;;;;;8.80;3.85;;;;;;;-144.05;41.62;57040.00;5040055;28;20037;-83
2023/12/04 10:13:25;;;;;;;9.55;3.53;;;;;;;-144.05;42.89;57044.25;5040831;28;20105;-83
2023/12/04 10:15:51;;;;;;;7.07;3.63;;;;;;;-144.05;42.77;57006.00;5040344;28;20029;-84
2023/12/04 10:18:31;;;;;;;6.43;3.97;;;;;;;-144.05;42.37;57046.38;5041007;28;20040;-82
2023/12/04 10:20:59;;;;;;;8.05;4.10;;;;;;;-144.05;41.95;57044.25;5026432;28;20494;-82
2023/12/04 10:23:46;;;;;;;6.03;3.28;;;;;;;-144.05;42.89;57071.84;5040945;28;20148;-83
2023/12/04 10:26:18;;;;;;;6.03;3.50;;;;;;;-144.05;42.18;57054.88;5040544;28;20030;-83
2023/12/04 10:29:07;;;;;;;6.45;3.60;;;4.00;99.90;;;-144.05;41.85;57040.00;5041311;28;20048;-81
2023/12/04 10:31:34;;;;;;;6.10;3.80;;;3.80;99.90;;;-144.05;41.57;57082.47;5040474;28;20040;-84
2023/12/04 10:34:04;;;;;;;4.65;3.40;;;;;;;-144.05;41.70;57012.38;5035306;28;20160;-83
2023/12/04 10:36:31;;;;;;;5.40;3.33;;;;;;;-144.05;41.64;57027.25;5052279;28;20084;-82
2023/12/04 10:39:04;;;;;;;8.32;3.60;;;;;;;-144.05;41.36;57025.13;5039239;28;20483;-82
2023/12/04 10:41:31;;;;;;;5.15;3.40;;;;;;;-144.05;41.58;57040.00;5038243;28;20029;-84
2023/12/04 10:43:58;;;;;;;9.30;3.78;;;;;;;-144.05;40.92;57054.88;5039631;28;20064;-84
2023/12/04 10:46:28;;;;;;;6.13;3.58;;;3.80;99.90;;;-144.05;40.97;57069.72;5039786;28;20044;-83
2023/12/04 10:48:56;;;;;;;7.95;3.65;;;;;;;-144.05;41.39;57042.13;5044338;28;20089;-80
2023/12/04 10:51:23;;;;;;;7.28;3.13;;;;;;;-144.05;41.04;57076.09;5041526;28;20184;-82
2023/12/04 10:53:50;;;;;;;6.22;3.53;;;;;;;-144.05;41.22;57056.97;5039883;28;20116;-82
2023/12/04 10:56:35;;;;;;;6.22;3.38;;;;;;;-144.05;41.54;57048.50;5061444;28;20033;-82
2023/12/04 10:59:09;;;;;;;5.38;3.30;;;;;;;-144.05;41.21;57044.25;5042435;28;20064;-83
2023/12/04 11:01:37;;;;;;;6.78;3.33;;;;;;;-144.05;41.15;57056.97;5039751;28;20021;-81
2023/12/04 11:04:07;;;;;;;6.20;3.17;;;;;;;-144.05;41.55;57044.25;5039545;28;20029;-81
2023/12/04 11:06:40;;;;;;;8.65;3.78;;;4.60;99.90;;;-144.05;41.98;57052.75;5039701;28;20029;-83
2023/12/04 11:09:08;;;;;;;6.80;3.38;;;;;;;-144.05;44.18;57042.13;5038362;28;20040;-81
2023/12/04 11:11:46;;;;;;;6.30;3.65;;;;;;;-144.05;43.02;57018.75;5054500;28;20025;-81